Time;durP1;ratioP1;P1;durP2;ratioP2;P2;SDS_P1;SDS_P2;PMS_P1;PMS_P2;Temp;Humidity;BMP_temperature;BMP_pressure;BME280_temperature;BME280_humidity;BME280_pressure;Samples;Min_cycle;Max_cycle;Signal;HPM_P1;HPM_P2
2021/03/19 00:01:43;;;;;;;15.90;10.97;;;5.20;81.70;;;;;;5055212;28;20489;-39
2021/03/19 00:04:10;;;;;;;16.60;10.10;;;5.10;81.90;;;;;;5052899;28;20924;-39
2021/03/19 00:06:37;;;;;;;18.83;10.57;;;5.10;82.00;;;;;;5053008;28;20858;-39
2021/03/19 00:09:06;;;;;;;18.10;10.47;;;5.10;82.00;;;;;;5053071;28;20594;-39
2021/03/19 00:11:34;;;;;;;14.67;9.67;;;5.10;82.30;;;;;;5055259;28;20465;-39
2021/03/19 00:14:02;;;;;;;14.43;10.83;;;5.10;82.60;;;;;;5050647;28;20931;-39
2021/03/19 00:16:29;;;;;;;15.97;9.63;;;5.10;82.60;;;;;;5047659;28;20463;-39
2021/03/19 00:18:55;;;;;;;15.90;11.00;;;5.00;82.60;;;;;;5051357;28;20520;-39
2021/03/19 00:21:22;;;;;;;15.30;10.03;;;5.00;82.60;;;;;;5053670;28;20464;-39
2021/03/19 00:23:50;;;;;;;18.53;10.80;;;5.00;82.70;;;;;;5028335;28;20475;-39
2021/03/19 00:26:17;;;;;;;19.90;11.30;;;5.00;82.70;;;;;;5052015;28;20546;-39
2021/03/19 00:28:44;;;;;;;17.37;10.57;;;4.90;82.70;;;;;;5067472;28;20566;-39
2021/03/19 00:31:10;;;;;;;15.53;10.90;;;4.90;82.90;;;;;;5051985;28;21857;-39
2021/03/19 00:33:37;;;;;;;16.80;11.50;;;4.90;83.00;;;;;;5052757;28;20859;-39
2021/03/19 00:36:04;;;;;;;14.77;9.93;;;5.00;83.30;;;;;;5051166;28;20459;-39
2021/03/19 00:38:30;;;;;;;13.87;10.53;;;5.00;83.00;;;;;;5065826;28;20549;-39
2021/03/19 00:40:59;;;;;;;15.97;10.17;;;4.90;83.10;;;;;;5051708;28;20549;-39
2021/03/19 00:43:26;;;;;;;15.10;9.80;;;4.90;83.20;;;;;;5050179;28;20459;-39
2021/03/19 00:45:53;;;;;;;14.70;8.97;;;4.90;83.20;;;;;;5045368;28;20466;-39
2021/03/19 00:48:19;;;;;;;18.47;9.93;;;4.90;83.10;;;;;;5048355;28;20466;-40
2021/03/19 00:50:52;;;;;;;15.37;9.10;;;4.80;83.20;;;;;;5050466;28;20463;-39
2021/03/19 00:53:18;;;;;;;12.47;8.13;;;4.80;83.40;;;;;;5049372;28;20439;-39
2021/03/19 00:55:45;;;;;;;15.37;9.20;;;4.80;83.40;;;;;;5050853;28;20972;-39
2021/03/19 00:58:13;;;;;;;11.73;8.50;;;4.80;83.40;;;;;;5048990;28;20497;-39
2021/03/19 01:00:40;;;;;;;17.00;10.07;;;4.70;83.40;;;;;;5049355;28;20455;-39
2021/03/19 01:03:07;;;;;;;16.00;10.67;;;4.70;83.50;;;;;;5048198;28;20462;-39
2021/03/19 01:05:37;;;;;;;18.23;10.73;;;4.70;83.60;;;;;;5047767;28;20486;-39
2021/03/19 01:08:06;;;;;;;17.33;9.60;;;4.70;83.60;;;;;;5047755;28;20469;-39
2021/03/19 01:10:44;;;;;;;16.90;10.47;;;4.70;83.80;;;;;;5049876;28;20509;-39
2021/03/19 01:13:11;;;;;;;16.77;10.77;;;4.70;83.90;;;;;;5047613;28;20447;-39
2021/03/19 01:15:39;;;;;;;18.30;11.50;;;4.70;83.90;;;;;;5063106;28;20508;-39
2021/03/19 01:18:11;;;;;;;18.10;10.90;;;4.70;83.90;;;;;;5047024;28;20518;-39
2021/03/19 01:20:39;;;;;;;14.70;10.67;;;4.70;84.10;;;;;;5051282;28;20747;-39
2021/03/19 01:23:06;;;;;;;19.67;11.70;;;4.70;84.10;;;;;;5049160;28;20557;-39
2021/03/19 01:25:32;;;;;;;16.20;10.60;;;4.70;84.10;;;;;;5046923;28;20466;-39
2021/03/19 01:27:59;;;;;;;19.30;11.73;;;4.70;84.20;;;;;;5062125;28;20469;-40
2021/03/19 01:30:28;;;;;;;20.83;13.07;;;4.70;84.20;;;;;;5062355;28;20487;-40
2021/03/19 01:32:55;;;;;;;18.00;11.10;;;4.70;84.20;;;;;;5046751;28;22053;-40
2021/03/19 01:35:23;;;;;;;18.37;12.00;;;4.70;84.30;;;;;;5048822;28;20461;-40
2021/03/19 01:37:53;;;;;;;17.70;11.63;;;4.70;84.20;;;;;;5046648;28;20455;-39
2021/03/19 01:40:28;;;;;;;17.90;12.83;;;4.70;84.20;;;;;;5048899;28;20466;-39
2021/03/19 01:43:00;;;;;;;18.10;12.73;;;4.70;84.20;;;;;;5046311;28;21031;-39
2021/03/19 01:46:03;;;;;;;17.10;11.20;;;4.70;84.20;;;;;;5048002;28;20541;-39
2021/03/19 01:49:07;;;;;;;18.67;12.03;;;4.70;84.30;;;;;;5061626;28;20889;-39
2021/03/19 01:52:11;;;;;;;17.03;10.97;;;4.70;84.50;;;;;;5045472;28;20473;-39
2021/03/19 01:55:15;;;;;;;18.90;11.80;;;4.70;84.70;;;;;;5060421;28;20448;-39
2021/03/19 01:58:19;;;;;;;19.57;12.10;;;4.70;84.70;;;;;;5043320;28;20894;-39
2021/03/19 02:01:24;;;;;;;18.57;11.40;;;4.70;84.80;;;;;;5044988;28;20462;-39
2021/03/19 02:04:28;;;;;;;17.53;12.00;;;4.70;84.80;;;;;;5044654;28;20455;-39
2021/03/19 02:07:32;;;;;;;20.67;13.50;;;4.70;84.90;;;;;;5041969;28;20470;-39
2021/03/19 02:10:37;;;;;;;18.20;11.93;;;4.70;84.80;;;;;;5044208;28;20826;-39
2021/03/19 02:13:41;;;;;;;18.43;11.37;;;4.60;84.80;;;;;;5044574;28;20485;-39
2021/03/19 02:16:45;;;;;;;17.67;12.00;;;4.60;84.40;;;;;;5044575;28;20493;-39
2021/03/19 02:19:50;;;;;;;19.20;12.83;;;4.50;84.30;;;;;;5043885;28;20477;-39
2021/03/19 02:22:54;;;;;;;16.20;10.53;;;4.50;84.10;;;;;;5043832;28;20465;-39
2021/03/19 02:25:57;;;;;;;15.23;10.20;;;4.40;83.90;;;;;;5046190;28;20464;-39
2021/03/19 02:29:02;;;;;;;17.57;11.10;;;4.40;83.60;;;;;;5059170;28;21080;-39
2021/03/19 02:31:54;;;;;;;14.10;9.00;;;4.30;83.40;;;;;;5060532;28;20885;-39
2021/03/19 02:34:26;;;;;;;12.93;8.90;;;4.30;83.20;;;;;;5045878;28;20543;-39
2021/03/19 02:36:54;;;;;;;16.83;9.50;;;4.20;83.10;;;;;;5060299;28;20465;-39
2021/03/19 02:39:23;;;;;;;14.87;10.07;;;4.20;83.20;;;;;;5045628;28;20887;-39
2021/03/19 02:41:51;;;;;;;15.83;10.53;;;4.20;83.20;;;;;;5048287;28;20468;-39
2021/03/19 02:44:18;;;;;;;13.47;9.90;;;4.10;83.20;;;;;;5064809;28;20833;-39
2021/03/19 02:46:44;;;;;;;15.70;10.47;;;4.10;83.30;;;;;;5047873;28;20454;-38
2021/03/19 02:49:10;;;;;;;17.27;11.53;;;4.10;83.50;;;;;;5048256;28;20536;-39
2021/03/19 02:51:38;;;;;;;15.33;9.83;;;4.00;83.50;;;;;;5063323;28;20454;-39
2021/03/19 02:54:05;;;;;;;17.43;10.33;;;4.00;83.60;;;;;;5046413;28;20545;-39
2021/03/19 02:56:34;;;;;;;15.37;9.97;;;4.00;83.60;;;;;;5052307;28;20989;-39
2021/03/19 02:59:01;;;;;;;17.83;11.67;;;3.90;83.80;;;;;;5044106;28;20506;-39
2021/03/19 03:01:30;;;;;;;19.10;12.20;;;3.90;83.80;;;;;;5046931;28;20463;-39
2021/03/19 03:03:57;;;;;;;19.17;12.23;;;3.90;84.00;;;;;;5046753;28;20454;-39
2021/03/19 03:06:45;;;;;;;20.50;13.20;;;3.90;84.20;;;;;;5048424;28;20465;-39
2021/03/19 03:09:17;;;;;;;19.10;12.07;;;3.90;84.30;;;;;;5048008;28;20526;-39
2021/03/19 03:11:44;;;;;;;19.80;12.70;;;3.80;84.40;;;;;;5046757;28;20462;-39
2021/03/19 03:14:15;;;;;;;21.07;13.20;;;3.80;84.50;;;;;;5047858;28;20454;-39
2021/03/19 03:16:42;;;;;;;21.50;13.30;;;3.90;84.70;;;;;;5047996;28;20478;-39
2021/03/19 03:19:14;;;;;;;21.73;13.00;;;3.90;84.90;;;;;;5047752;28;20842;-39
2021/03/19 03:21:40;;;;;;;22.50;14.00;;;3.80;85.10;;;;;;5049456;28;20970;-39
2021/03/19 03:24:09;;;;;;;23.17;14.37;;;3.80;85.30;;;;;;5047212;28;21004;-38
2021/03/19 03:26:35;;;;;;;24.20;14.70;;;3.90;85.30;;;;;;5043623;28;20458;-38
2021/03/19 03:29:05;;;;;;;26.90;15.43;;;3.90;85.40;;;;;;5048607;28;20488;-38
2021/03/19 03:31:34;;;;;;;25.07;15.30;;;3.80;85.40;;;;;;5044663;28;20450;-38
2021/03/19 03:34:01;;;;;;;29.50;16.00;;;3.90;85.60;;;;;;5047486;28;20553;-41
2021/03/19 03:36:28;;;;;;;27.33;15.80;;;3.90;85.70;;;;;;5045146;28;20794;-41
2021/03/19 03:38:54;;;;;;;23.13;13.73;;;3.90;85.70;;;;;;5046455;28;20450;-41
2021/03/19 03:41:26;;;;;;;19.20;12.17;;;3.90;85.80;;;;;;5045415;28;20950;-40
2021/03/19 03:43:53;;;;;;;21.13;12.33;;;3.90;85.80;;;;;;5044818;28;21135;-41
2021/03/19 03:46:25;;;;;;;21.63;13.37;;;3.90;85.70;;;;;;5048459;28;20446;-41
2021/03/19 03:48:57;;;;;;;20.87;12.80;;;3.90;85.70;;;;;;5047822;28;20462;-41
2021/03/19 03:51:26;;;;;;;19.87;12.37;;;3.80;85.70;;;;;;5061993;28;21085;-41
2021/03/19 03:53:53;;;;;;;24.03;14.70;;;3.80;85.70;;;;;;5045746;28;20459;-41
2021/03/19 03:56:20;;;;;;;21.10;14.07;;;3.80;85.60;;;;;;5049745;28;20450;-41
2021/03/19 03:58:49;;;;;;;24.27;15.50;;;3.80;85.70;;;;;;5050082;28;20438;-41
2021/03/19 04:01:16;;;;;;;23.30;14.50;;;3.80;85.70;;;;;;5047641;28;20541;-41
2021/03/19 04:03:45;;;;;;;27.00;15.87;;;3.80;85.70;;;;;;5046801;28;20458;-41
2021/03/19 04:06:12;;;;;;;26.93;15.83;;;3.80;85.70;;;;;;5044484;28;20462;-41
2021/03/19 04:08:39;;;;;;;24.17;15.30;;;3.70;85.80;;;;;;5048285;28;20545;-41
2021/03/19 04:11:16;;;;;;;22.70;14.57;;;3.80;86.00;;;;;;5045215;28;20491;-41
2021/03/19 04:13:43;;;;;;;21.87;14.93;;;3.80;85.90;;;;;;5047005;28;20450;-41
2021/03/19 04:16:11;;;;;;;25.90;16.57;;;3.80;85.90;;;;;;5045618;28;20977;-41
2021/03/19 04:18:38;;;;;;;22.80;14.43;;;3.80;86.00;;;;;;5045672;28;20955;-41
2021/03/19 04:21:08;;;;;;;26.90;15.90;;;3.70;86.10;;;;;;5047205;28;20465;-41
2021/03/19 04:23:37;;;;;;;23.67;14.10;;;3.70;86.10;;;;;;5045886;28;20501;-41
2021/03/19 04:26:04;;;;;;;26.23;15.40;;;3.70;86.20;;;;;;5046767;28;20458;-41
2021/03/19 04:28:34;;;;;;;25.30;16.03;;;3.70;86.20;;;;;;5045454;28;20571;-41
2021/03/19 04:31:01;;;;;;;23.20;13.73;;;3.70;86.20;;;;;;5057571;28;20486;-41
2021/03/19 04:33:29;;;;;;;23.20;13.73;;;3.70;86.30;;;;;;5046279;28;20454;-41
2021/03/19 04:36:24;;;;;;;26.37;15.30;;;3.70;86.30;;;;;;5047560;28;20858;-41
2021/03/19 04:38:52;;;;;;;24.10;13.90;;;3.70;86.30;;;;;;5022935;28;20456;-42
2021/03/19 04:41:19;;;;;;;21.97;13.80;;;3.70;86.30;;;;;;5062061;28;20560;-41
2021/03/19 04:43:49;;;;;;;24.90;15.57;;;3.70;86.50;;;;;;5044993;28;20548;-41
2021/03/19 04:46:15;;;;;;;24.70;13.70;;;3.70;86.60;;;;;;5046278;28;20454;-41
2021/03/19 04:48:43;;;;;;;22.10;12.67;;;3.70;86.60;;;;;;5046706;28;20458;-41
2021/03/19 04:51:10;;;;;;;17.77;13.33;;;3.70;86.70;;;;;;5044929;28;20485;-41
2021/03/19 04:53:50;;;;;;;20.57;13.40;;;3.70;86.80;;;;;;5060460;28;20621;-41
2021/03/19 04:56:17;;;;;;;23.17;14.67;;;3.70;86.90;;;;;;5045858;28;20450;-41
2021/03/19 04:58:45;;;;;;;22.53;13.70;;;3.80;87.00;;;;;;5044524;28;20563;-41
2021/03/19 05:01:13;;;;;;;24.70;14.20;;;3.80;87.00;;;;;;5062748;28;20554;-41
2021/03/19 05:03:43;;;;;;;22.00;14.00;;;3.80;87.00;;;;;;5045681;28;21027;-41
2021/03/19 05:06:10;;;;;;;26.97;14.97;;;3.80;87.10;;;;;;5044596;28;20550;-41
2021/03/19 05:08:36;;;;;;;26.50;15.87;;;3.90;87.00;;;;;;5046092;28;20550;-41
2021/03/19 05:11:03;;;;;;;26.90;16.83;;;3.90;86.90;;;;;;5046194;28;20581;-42
2021/03/19 05:13:29;;;;;;;30.60;17.00;;;3.90;86.80;;;;;;5045850;28;20467;-42
2021/03/19 05:15:56;;;;;;;30.23;16.70;;;4.00;86.70;;;;;;5060558;28;20458;-42
2021/03/19 05:18:23;;;;;;;32.83;17.43;;;3.90;86.90;;;;;;5044534;28;20466;-42
2021/03/19 05:20:51;;;;;;;35.40;17.63;;;3.90;86.80;;;;;;5046408;28;20459;-42
2021/03/19 05:23:21;;;;;;;29.00;16.60;;;4.00;86.20;;;;;;5045114;28;20779;-41
2021/03/19 05:25:49;;;;;;;29.87;17.87;;;3.90;86.30;;;;;;5045372;28;20466;-42
2021/03/19 05:28:15;;;;;;;26.03;17.13;;;4.00;86.00;;;;;;5043124;28;20473;-42
2021/03/19 05:30:42;;;;;;;27.00;15.97;;;4.00;85.70;;;;;;5044621;28;20566;-42
2021/03/19 05:33:08;;;;;;;26.07;15.50;;;4.00;85.50;;;;;;5045410;28;20462;-42
2021/03/19 05:35:36;;;;;;;24.57;14.97;;;4.00;85.30;;;;;;5044726;28;20462;-42
2021/03/19 05:38:03;;;;;;;32.70;16.60;;;4.10;85.00;;;;;;5046417;28;20458;-41
2021/03/19 05:40:43;;;;;;;25.37;15.43;;;4.10;84.90;;;;;;5042754;28;21010;-41
2021/03/19 05:43:40;;;;;;;23.30;14.47;;;4.10;84.80;;;;;;5043182;28;20462;-41
2021/03/19 05:46:20;;;;;;;24.37;16.07;;;4.00;85.20;;;;;;5038310;28;20490;-41
2021/03/19 05:48:59;;;;;;;23.83;14.17;;;4.10;85.20;;;;;;5045941;28;20954;-41
2021/03/19 05:51:42;;;;;;;25.07;14.50;;;4.10;84.90;;;;;;5045426;28;20459;-41
2021/03/19 05:54:36;;;;;;;26.67;14.77;;;4.10;84.60;;;;;;5045679;28;20917;-41
2021/03/19 05:57:08;;;;;;;24.30;14.60;;;4.10;84.40;;;;;;5044553;28;20457;-42
2021/03/19 05:59:36;;;;;;;21.90;13.60;;;4.10;84.30;;;;;;5044701;28;20823;-42
2021/03/19 06:02:18;;;;;;;25.67;15.67;;;4.10;84.50;;;;;;5048644;28;20454;-41
2021/03/19 06:04:57;;;;;;;27.20;15.70;;;4.10;84.50;;;;;;5043507;28;20544;-42
2021/03/19 06:07:43;;;;;;;26.87;16.20;;;4.10;84.50;;;;;;5042428;28;20469;-42
2021/03/19 06:10:26;;;;;;;22.50;15.73;;;4.10;84.20;;;;;;5059150;28;20512;-42
2021/03/19 06:12:57;;;;;;;26.43;14.90;;;4.10;84.20;;;;;;5052292;28;20538;-41
2021/03/19 06:15:29;;;;;;;25.00;14.47;;;4.10;84.40;;;;;;5059344;28;20456;-41
2021/03/19 06:17:57;;;;;;;26.97;14.63;;;4.20;84.10;;;;;;5041378;28;20970;-42
2021/03/19 06:20:25;;;;;;;22.97;14.60;;;4.20;84.20;;;;;;5046355;28;20467;-42
2021/03/19 06:23:13;;;;;;;22.60;14.77;;;4.20;84.10;;;;;;5045430;28;20469;-41
2021/03/19 06:25:58;;;;;;;24.97;13.60;;;4.20;83.80;;;;;;5045592;28;20471;-41
2021/03/19 06:28:35;;;;;;;24.07;14.53;;;4.20;83.70;;;;;;5045362;28;20458;-41
2021/03/19 06:31:31;;;;;;;28.13;14.17;;;4.20;83.70;;;;;;5043929;28;20493;-41
2021/03/19 06:34:23;;;;;;;24.07;13.43;;;4.20;83.80;;;;;;5044941;28;20905;-42
2021/03/19 06:36:57;;;;;;;30.10;14.20;;;4.20;83.70;;;;;;5044103;28;20966;-41
2021/03/19 06:39:52;;;;;;;24.77;13.80;;;4.20;83.80;;;;;;5042966;28;20473;-42
2021/03/19 06:42:19;;;;;;;27.07;16.30;;;4.20;83.30;;;;;;5046426;28;20458;-42
2021/03/19 06:45:06;;;;;;;28.50;15.50;;;4.20;83.00;;;;;;5048665;28;20462;-42
2021/03/19 06:47:57;;;;;;;23.80;13.70;;;4.30;82.90;;;;;;5047171;28;20466;-42
2021/03/19 06:50:23;;;;;;;22.50;14.10;;;4.30;82.60;;;;;;5041214;28;20880;-41
2021/03/19 06:53:13;;;;;;;24.10;13.37;;;4.30;82.60;;;;;;5062338;28;20462;-42
2021/03/19 06:55:44;;;;;;;20.77;13.27;;;4.20;82.30;;;;;;5065562;28;20557;-41
2021/03/19 06:58:10;;;;;;;25.50;15.00;;;4.30;82.10;;;;;;5046756;28;20546;-42
2021/03/19 07:00:49;;;;;;;24.40;13.10;;;4.30;82.20;;;;;;5044762;28;20463;-42
2021/03/19 07:03:56;;;;;;;25.03;14.60;;;4.30;81.90;;;;;;5045496;28;20461;-41
2021/03/19 07:06:41;;;;;;;24.23;13.80;;;4.30;82.10;;;;;;5048041;28;20534;-42
2021/03/19 07:09:34;;;;;;;25.60;15.13;;;4.40;82.00;;;;;;5045561;28;20465;-41
2021/03/19 07:12:36;;;;;;;24.27;15.27;;;4.40;82.20;;;;;;5044337;28;20469;-42
2021/03/19 07:15:27;;;;;;;26.50;15.67;;;4.40;82.20;;;;;;5060866;28;20528;-41
2021/03/19 07:17:57;;;;;;;24.77;14.50;;;4.50;82.10;;;;;;5046211;28;20486;-41
2021/03/19 07:20:58;;;;;;;23.67;13.30;;;4.60;81.70;;;;;;5047101;28;20485;-41
2021/03/19 07:23:30;;;;;;;23.93;14.87;;;4.70;81.70;;;;;;5044969;28;20472;-41
2021/03/19 07:26:02;;;;;;;24.10;15.00;;;4.70;81.50;;;;;;5045431;28;20490;-41
2021/03/19 07:28:53;;;;;;;23.90;13.60;;;4.80;81.40;;;;;;5050573;28;20932;-42
2021/03/19 07:31:28;;;;;;;20.90;13.73;;;4.80;80.40;;;;;;5051206;28;21028;-41
2021/03/19 07:34:26;;;;;;;22.93;15.50;;;4.90;80.50;;;;;;5049416;28;20813;-42
2021/03/19 07:37:08;;;;;;;24.10;15.13;;;4.90;80.50;;;;;;5050155;28;20516;-41
2021/03/19 07:39:56;;;;;;;23.50;14.87;;;5.00;80.10;;;;;;5048434;28;20549;-42
2021/03/19 07:42:53;;;;;;;25.60;14.53;;;5.00;80.10;;;;;;5049771;28;20490;-42
2021/03/19 07:45:44;;;;;;;28.43;15.17;;;5.00;79.80;;;;;;5050377;28;21009;-42
2021/03/19 07:48:11;;;;;;;24.60;14.83;;;5.10;79.90;;;;;;5066462;28;20859;-41
2021/03/19 07:51:01;;;;;;;25.50;15.00;;;5.10;80.10;;;;;;5065733;28;20513;-42
2021/03/19 07:53:46;;;;;;;23.63;13.97;;;5.10;79.60;;;;;;5051764;28;20457;-42
2021/03/19 07:56:40;;;;;;;22.97;13.83;;;5.10;78.60;;;;;;5063604;28;20497;-42
2021/03/19 07:59:30;;;;;;;21.97;14.87;;;5.10;78.60;;;;;;5048087;28;20462;-42
2021/03/19 08:02:11;;;;;;;23.23;12.90;;;5.10;78.20;;;;;;5050137;28;20459;-41
2021/03/19 08:04:56;;;;;;;30.90;14.17;;;5.10;78.30;;;;;;5050312;28;20981;-42
2021/03/19 08:07:51;;;;;;;24.10;13.83;;;5.10;78.60;;;;;;5051858;28;20450;-42
2021/03/19 08:10:50;;;;;;;27.73;15.87;;;5.00;79.00;;;;;;5049861;28;20484;-42
2021/03/19 08:13:52;;;;;;;26.13;14.57;;;5.00;79.50;;;;;;5049542;28;20874;-42
2021/03/19 08:17:00;;;;;;;24.17;13.23;;;5.10;79.70;;;;;;5046895;28;20470;-42
2021/03/19 08:19:51;;;;;;;22.63;13.07;;;5.20;79.30;;;;;;5048548;28;20827;-41
2021/03/19 08:22:44;;;;;;;18.73;13.77;;;5.20;79.10;;;;;;5050847;28;20447;-41
2021/03/19 08:25:37;;;;;;;22.97;12.40;;;5.20;78.90;;;;;;5050382;28;20512;-41
2021/03/19 08:28:36;;;;;;;22.23;12.17;;;5.30;78.10;;;;;;5046434;28;20461;-42
2021/03/19 08:31:28;;;;;;;20.43;12.17;;;5.40;76.40;;;;;;5047418;28;21103;-41
2021/03/19 08:34:08;;;;;;;15.03;9.90;;;5.50;76.60;;;;;;5050051;28;20477;-42
2021/03/19 08:36:46;;;;;;;16.73;10.63;;;5.50;77.10;;;;;;5065949;28;20458;-41
2021/03/19 08:39:41;;;;;;;18.50;9.90;;;5.60;75.70;;;;;;5051300;28;20456;-41
2021/03/19 08:42:29;;;;;;;14.40;10.27;;;5.70;75.40;;;;;;5048729;28;20451;-41
2021/03/19 08:44:55;;;;;;;17.87;9.87;;;5.80;74.90;;;;;;5047765;28;21014;-42
2021/03/19 08:47:39;;;;;;;17.30;10.30;;;5.80;73.40;;;;;;5049278;28;20963;-41
2021/03/19 08:50:16;;;;;;;21.23;11.00;;;5.90;74.40;;;;;;5045372;28;20494;-41
2021/03/19 08:53:22;;;;;;;17.90;10.57;;;6.00;74.00;;;;;;5049397;28;20872;-41
2021/03/19 08:55:51;;;;;;;14.53;9.83;;;6.30;74.60;;;;;;5048875;28;20454;-41
2021/03/19 08:58:30;;;;;;;16.57;11.00;;;6.60;73.90;;;;;;5062743;28;20455;-42
2021/03/19 09:01:05;;;;;;;14.07;9.07;;;7.00;72.50;;;;;;5063295;28;20902;-41
2021/03/19 09:03:38;;;;;;;14.10;9.80;;;7.40;71.50;;;;;;5048073;28;20454;-41
2021/03/19 09:06:05;;;;;;;12.20;8.53;;;7.90;67.80;;;;;;5049462;28;20538;-42
2021/03/19 09:08:44;;;;;;;13.70;8.90;;;8.20;67.40;;;;;;5064770;28;20463;-42
2021/03/19 09:11:35;;;;;;;13.97;8.80;;;8.50;65.70;;;;;;5047677;28;20486;-41
2021/03/19 09:14:02;;;;;;;12.53;8.23;;;8.90;65.50;;;;;;5045751;28;20486;-41
2021/03/19 09:16:42;;;;;;;11.93;8.37;;;9.30;63.70;;;;;;5047039;28;20454;-41
2021/03/19 09:19:40;;;;;;;13.83;8.33;;;9.40;62.00;;;;;;5047379;28;20470;-41
2021/03/19 09:22:31;;;;;;;13.13;9.73;;;9.50;61.50;;;;;;5062960;28;20466;-41
2021/03/19 09:25:10;;;;;;;15.63;8.70;;;9.30;60.60;;;;;;5048877;28;20974;-42
2021/03/19 09:27:42;;;;;;;14.80;8.40;;;9.10;61.60;;;;;;5050452;28;20492;-41
2021/03/19 09:30:24;;;;;;;14.47;8.70;;;9.00;62.40;;;;;;5064253;28;20846;-42
2021/03/19 09:32:54;;;;;;;14.80;10.20;;;8.90;61.90;;;;;;5047512;28;20951;-41
2021/03/19 09:35:41;;;;;;;14.60;8.00;;;8.70;61.40;;;;;;5049499;28;20459;-41
2021/03/19 09:38:37;;;;;;;10.30;7.50;;;8.70;61.60;;;;;;5064116;28;20538;-42
2021/03/19 09:41:07;;;;;;;12.80;7.67;;;8.70;61.90;;;;;;5048303;28;20478;-41
2021/03/19 09:43:46;;;;;;;10.87;7.50;;;8.60;61.40;;;;;;5048182;28;20523;-41
2021/03/19 09:46:18;;;;;;;11.87;8.10;;;8.50;61.70;;;;;;5048261;28;20512;-41
2021/03/19 09:49:00;;;;;;;12.00;8.03;;;8.50;62.40;;;;;;5048162;28;20455;-42
2021/03/19 09:51:42;;;;;;;9.80;7.10;;;8.40;61.70;;;;;;5047315;28;21096;-41
2021/03/19 09:54:29;;;;;;;13.50;8.20;;;8.50;61.60;;;;;;5044980;28;20466;-42
2021/03/19 09:57:03;;;;;;;11.60;7.80;;;8.40;62.20;;;;;;5046330;28;20451;-41
2021/03/19 09:59:34;;;;;;;13.07;8.10;;;8.30;62.30;;;;;;5047852;28;20457;-42
2021/03/19 10:02:04;;;;;;;10.93;7.10;;;8.30;62.80;;;;;;5045045;28;21023;-42
2021/03/19 10:04:34;;;;;;;15.70;8.87;;;8.40;61.50;;;;;;5047763;28;20963;-42
2021/03/19 10:07:11;;;;;;;12.03;7.30;;;8.40;61.00;;;;;;5047640;28;20466;-42
2021/03/19 10:09:46;;;;;;;14.73;8.20;;;8.60;59.80;;;;;;5047739;28;20464;-41
2021/03/19 10:12:23;;;;;;;11.57;7.20;;;8.90;59.70;;;;;;5060254;28;20463;-42
2021/03/19 10:14:53;;;;;;;14.23;6.90;;;9.30;59.50;;;;;;5049309;28;20533;-42
2021/03/19 10:17:33;;;;;;;8.57;5.90;;;9.80;58.20;;;;;;5059387;28;20852;-42
2021/03/19 10:20:02;;;;;;;9.40;5.97;;;10.30;56.30;;;;;;5047231;28;20873;-42
2021/03/19 10:22:37;;;;;;;10.30;6.67;;;10.80;54.90;;;;;;5062403;28;20465;-41
2021/03/19 10:25:25;;;;;;;10.80;6.70;;;10.90;53.70;;;;;;5049335;28;20863;-42
2021/03/19 10:28:24;;;;;;;10.20;6.90;;;11.00;53.10;;;;;;5062883;28;20464;-42
2021/03/19 10:30:53;;;;;;;10.80;7.03;;;11.20;54.00;;;;;;5048892;28;20481;-42
2021/03/19 10:33:26;;;;;;;11.63;7.47;;;11.70;53.60;;;;;;5049312;28;20525;-42
2021/03/19 10:35:58;;;;;;;10.00;6.30;;;12.10;51.50;;;;;;5061384;28;20461;-41
2021/03/19 10:38:33;;;;;;;8.30;6.43;;;12.20;52.10;;;;;;5049246;28;20446;-42
2021/03/19 10:41:08;;;;;;;9.97;6.30;;;12.20;50.90;;;;;;5046430;28;20514;-41
2021/03/19 10:43:56;;;;;;;13.87;7.27;;;11.80;50.40;;;;;;5048915;28;20460;-42
2021/03/19 10:46:41;;;;;;;8.37;6.73;;;11.50;50.50;;;;;;5062655;28;20498;-41
2021/03/19 10:49:37;;;;;;;8.77;6.83;;;11.00;51.50;;;;;;5046840;28;20462;-42
2021/03/19 10:52:10;;;;;;;10.80;7.03;;;10.60;53.20;;;;;;5046343;28;20471;-42
2021/03/19 10:54:45;;;;;;;9.60;6.20;;;10.20;53.40;;;;;;5045233;28;20573;-41
2021/03/19 10:57:27;;;;;;;10.37;7.10;;;9.70;54.40;;;;;;5046780;28;20557;-41
2021/03/19 10:59:54;;;;;;;8.10;5.97;;;9.30;55.30;;;;;;5046446;28;20951;-41
2021/03/19 11:02:25;;;;;;;10.13;7.57;;;9.10;55.80;;;;;;5051375;28;20465;-42
2021/03/19 11:04:55;;;;;;;11.07;7.07;;;8.90;57.20;;;;;;5073287;28;20997;-42
2021/03/19 11:07:27;;;;;;;8.43;6.70;;;8.80;58.10;;;;;;5050529;28;20461;-42
2021/03/19 11:09:59;;;;;;;9.53;7.50;;;8.80;58.10;;;;;;5054222;28;20982;-41
2021/03/19 11:12:35;;;;;;;10.53;7.00;;;8.70;57.80;;;;;;5050579;28;20533;-42
2021/03/19 11:15:08;;;;;;;9.77;6.63;;;8.60;58.90;;;;;;5052117;28;20501;-42
2021/03/19 11:17:35;;;;;;;11.70;8.20;;;8.50;58.80;;;;;;5051099;28;20486;-42
2021/03/19 11:20:08;;;;;;;14.87;7.10;;;8.40;59.50;;;;;;5066316;28;20459;-42
2021/03/19 11:22:43;;;;;;;9.93;7.53;;;8.50;59.70;;;;;;5051008;28;20545;-42
2021/03/19 11:25:41;;;;;;;8.87;6.33;;;8.90;59.00;;;;;;5050943;28;20596;-41
2021/03/19 11:28:39;;;;;;;11.80;7.70;;;9.40;57.70;;;;;;5050695;28;20488;-41
2021/03/19 11:31:27;;;;;;;9.07;6.97;;;10.00;57.90;;;;;;5049833;28;20963;-42
2021/03/19 11:34:04;;;;;;;9.03;7.07;;;10.30;55.10;;;;;;5053340;28;20662;-42
2021/03/19 11:36:59;;;;;;;9.77;6.60;;;10.60;54.00;;;;;;5050521;28;20441;-42
2021/03/19 11:39:36;;;;;;;10.40;7.23;;;10.90;54.30;;;;;;5051856;28;20446;-42
2021/03/19 11:42:06;;;;;;;8.80;6.63;;;11.00;51.90;;;;;;5052131;28;20486;-42
2021/03/19 11:44:32;;;;;;;11.00;6.63;;;11.00;52.30;;;;;;5048314;28;20545;-42
2021/03/19 11:47:24;;;;;;;7.40;5.80;;;11.20;51.60;;;;;;5051919;28;20507;-42
2021/03/19 11:50:11;;;;;;;8.83;6.40;;;11.20;51.60;;;;;;5049284;28;20870;-42
2021/03/19 11:52:37;;;;;;;5.27;4.60;;;11.20;51.90;;;;;;5051027;28;20477;-42
2021/03/19 11:55:05;;;;;;;7.17;5.97;;;11.20;50.40;;;;;;5045714;28;20537;-42
2021/03/19 11:57:32;;;;;;;6.87;4.47;;;11.00;51.20;;;;;;5065443;28;20448;-42
2021/03/19 12:00:01;;;;;;;5.50;4.57;;;10.80;51.30;;;;;;5052719;28;20579;-43
2021/03/19 12:02:42;;;;;;;11.00;6.20;;;10.60;50.80;;;;;;5046872;28;20885;-42
2021/03/19 12:05:14;;;;;;;7.70;5.07;;;10.40;50.90;;;;;;5048437;28;20486;-42
2021/03/19 12:07:41;;;;;;;8.30;5.53;;;10.40;52.40;;;;;;5049356;28;20469;-41
2021/03/19 12:10:09;;;;;;;9.80;5.80;;;10.60;52.30;;;;;;5051343;28;20854;-43
2021/03/19 12:12:36;;;;;;;6.87;5.20;;;10.70;51.60;;;;;;5050066;28;20443;-42
2021/03/19 12:15:06;;;;;;;7.90;6.30;;;10.90;51.20;;;;;;5063835;28;20473;-42
2021/03/19 12:17:32;;;;;;;7.60;5.30;;;10.90;50.10;;;;;;5047854;28;20477;-42
2021/03/19 12:19:59;;;;;;;8.27;6.33;;;10.80;51.20;;;;;;5050303;28;20945;-42
2021/03/19 12:22:25;;;;;;;7.33;5.90;;;10.60;52.40;;;;;;5050061;28;20462;-42
2021/03/19 12:24:52;;;;;;;7.83;5.77;;;10.40;52.10;;;;;;5063628;28;20453;-41
2021/03/19 12:27:21;;;;;;;8.87;6.73;;;10.20;53.50;;;;;;5048384;28;20470;-42
2021/03/19 12:29:47;;;;;;;9.10;6.37;;;10.10;53.80;;;;;;5063144;28;20932;-42
2021/03/19 12:32:14;;;;;;;10.67;7.33;;;10.00;54.30;;;;;;5049654;28;20463;-42
2021/03/19 12:34:43;;;;;;;9.17;6.40;;;10.00;54.80;;;;;;5051225;28;20534;-41
2021/03/19 12:37:09;;;;;;;8.70;7.40;;;10.10;55.60;;;;;;5051431;28;20516;-42
2021/03/19 12:39:35;;;;;;;7.90;6.13;;;10.20;55.40;;;;;;5048018;28;20788;-43
2021/03/19 12:42:02;;;;;;;10.40;7.30;;;10.30;54.70;;;;;;5063957;28;20459;-42
2021/03/19 12:44:30;;;;;;;8.30;6.03;;;10.30;54.90;;;;;;5050180;28;20490;-42
2021/03/19 12:46:58;;;;;;;8.13;6.77;;;10.40;54.40;;;;;;5066231;28;20951;-42
2021/03/19 12:49:25;;;;;;;7.30;6.00;;;10.50;53.80;;;;;;5049933;28;20512;-42
2021/03/19 12:51:51;;;;;;;10.60;8.73;;;10.50;53.50;;;;;;5048063;28;21002;-43
2021/03/19 12:54:19;;;;;;;7.60;5.87;;;10.60;53.20;;;;;;5050975;28;20453;-42
2021/03/19 12:56:45;;;;;;;10.53;6.83;;;10.70;52.20;;;;;;5049614;28;20561;-42
2021/03/19 12:59:12;;;;;;;7.57;6.47;;;10.80;52.80;;;;;;5048829;28;20454;-42
2021/03/19 13:01:39;;;;;;;7.07;5.80;;;10.80;52.00;;;;;;5049990;28;20462;-42
2021/03/19 13:04:07;;;;;;;10.47;6.87;;;10.60;52.40;;;;;;5050545;28;20971;-42
2021/03/19 13:06:34;;;;;;;7.50;6.40;;;10.40;53.00;;;;;;5048870;28;20458;-42
2021/03/19 13:09:01;;;;;;;8.20;6.60;;;10.20;53.10;;;;;;5033995;28;20463;-42
2021/03/19 13:11:27;;;;;;;9.43;6.07;;;9.90;54.10;;;;;;5047897;28;20573;-42
2021/03/19 13:13:54;;;;;;;7.93;6.53;;;9.70;55.40;;;;;;5050194;28;20451;-42
2021/03/19 13:16:23;;;;;;;6.83;6.13;;;9.50;56.30;;;;;;5065295;28;20483;-42
2021/03/19 13:18:49;;;;;;;10.80;6.80;;;9.30;56.90;;;;;;5062528;28;20970;-42
2021/03/19 13:21:16;;;;;;;11.43;6.60;;;9.10;57.30;;;;;;5048109;28;20565;-41
2021/03/19 13:23:42;;;;;;;7.77;6.40;;;9.00;57.00;;;;;;5049020;28;20458;-42
2021/03/19 13:26:08;;;;;;;7.40;5.80;;;8.90;56.60;;;;;;5031468;28;20458;-42